createdAt,value
2022-09-06T00:01:24.575Z,18.90
2022-09-06T00:04:27.785Z,18.90
2022-09-06T00:07:31.348Z,18.90
2022-09-06T00:10:35.101Z,18.80
2022-09-06T00:13:38.883Z,19.40
2022-09-06T00:16:43.445Z,18.80
2022-09-06T00:19:46.646Z,18.80
2022-09-06T00:22:49.814Z,18.90
2022-09-06T00:25:53.047Z,18.80
2022-09-06T00:28:56.292Z,18.80
2022-09-06T00:32:01.258Z,18.80
2022-09-06T00:35:06.264Z,18.80
2022-09-06T00:38:09.471Z,18.80
2022-09-06T00:41:15.832Z,18.80
2022-09-06T00:44:19.111Z,18.80
2022-09-06T00:47:23.785Z,18.80
2022-09-06T00:50:27.893Z,18.80
2022-09-06T00:53:32.392Z,18.80
2022-09-06T00:56:41.903Z,20.60
2022-09-06T00:59:48.208Z,19.00
2022-09-06T01:02:54.658Z,18.70
2022-09-06T01:06:13.247Z,18.80
2022-09-06T01:09:37.548Z,17.80
2022-09-06T01:12:52.172Z,18.70
2022-09-06T01:16:06.975Z,18.70
2022-09-06T01:19:59.028Z,18.70
2022-09-06T01:24:04.395Z,18.70
2022-09-06T01:27:41.397Z,18.70
2022-09-06T01:30:54.942Z,18.70
2022-09-06T01:34:22.411Z,18.70
2022-09-06T01:37:26.239Z,20.10
2022-09-06T01:40:29.881Z,18.70
2022-09-06T01:43:40.441Z,18.70
2022-09-06T01:46:56.927Z,18.70
2022-09-06T01:50:34.408Z,18.30
2022-09-06T01:54:15.768Z,18.80
2022-09-06T01:57:35.891Z,18.80
2022-09-06T02:00:50.209Z,18.80
2022-09-06T02:04:00.549Z,18.80
2022-09-06T02:07:14.463Z,18.80
2022-09-06T02:10:25.427Z,18.80
2022-09-06T02:13:36.296Z,18.80
2022-09-06T02:16:47.090Z,18.80
2022-09-06T02:19:54.991Z,18.50
2022-09-06T02:23:03.002Z,18.80
2022-09-06T02:26:11.996Z,18.80
2022-09-06T02:29:16.341Z,18.80
2022-09-06T02:32:25.222Z,18.80
2022-09-06T02:35:28.788Z,19.10
2022-09-06T02:38:35.165Z,18.70
2022-09-06T02:41:39.767Z,18.80
2022-09-06T02:44:42.957Z,18.80
2022-09-06T02:47:47.509Z,18.80
2022-09-06T02:50:50.777Z,18.70
2022-09-06T02:53:54.232Z,18.70
2022-09-06T02:56:57.467Z,18.70
2022-09-06T03:00:00.605Z,20.30
2022-09-06T03:03:05.750Z,18.70
2022-09-06T03:06:09.110Z,20.60
2022-09-06T03:09:12.322Z,18.70
2022-09-06T03:12:15.489Z,18.70
2022-09-06T03:15:18.924Z,18.70
2022-09-06T03:18:23.830Z,18.70
2022-09-06T03:21:27.132Z,18.70
2022-09-06T03:24:30.334Z,18.70
2022-09-06T03:27:33.645Z,18.70
2022-09-06T03:30:36.987Z,18.70
2022-09-06T03:33:41.640Z,18.60
2022-09-06T03:36:44.794Z,18.60
2022-09-06T03:39:48.104Z,18.60
2022-09-06T03:42:51.329Z,18.60
2022-09-06T03:45:57.251Z,18.30
2022-09-06T03:49:01.942Z,18.60
2022-09-06T03:52:05.837Z,18.60
2022-09-06T03:55:12.099Z,20.60
2022-09-06T03:58:16.413Z,17.60
2022-09-06T04:01:19.923Z,20.20
2022-09-06T04:04:24.640Z,18.60
2022-09-06T04:07:27.858Z,18.60
2022-09-06T04:10:31.576Z,18.60
2022-09-06T04:13:36.893Z,18.60
2022-09-06T04:16:40.843Z,18.60
2022-09-06T04:19:45.878Z,18.60
2022-09-06T04:22:49.923Z,18.60
2022-09-06T04:25:57.313Z,16.90
2022-09-06T04:29:02.499Z,18.70
2022-09-06T04:32:06.207Z,18.70
2022-09-06T04:35:11.312Z,18.70
2022-09-06T04:38:14.527Z,18.70
2022-09-06T04:41:19.761Z,19.20
2022-09-06T04:44:22.967Z,18.80
2022-09-06T04:47:27.068Z,18.70
2022-09-06T04:50:31.516Z,18.80
2022-09-06T04:53:34.689Z,18.80
2022-09-06T04:56:38.000Z,18.80
2022-09-06T04:59:41.417Z,18.80
2022-09-06T05:02:45.053Z,18.90
2022-09-06T05:05:49.616Z,18.90
2022-09-06T05:08:53.266Z,18.90
2022-09-06T05:11:56.454Z,18.90
2022-09-06T05:14:59.717Z,19.00
2022-09-06T05:18:04.796Z,20.90
2022-09-06T05:21:09.447Z,19.10
2022-09-06T05:24:12.806Z,20.40
2022-09-06T05:27:15.981Z,19.60
2022-09-06T05:30:19.653Z,19.80
2022-09-06T05:33:25.333Z,19.90
2022-09-06T05:36:33.408Z,20.80
2022-09-06T05:39:36.709Z,19.90
2022-09-06T05:42:41.051Z,19.90
2022-09-06T05:45:45.469Z,19.90
2022-09-06T05:48:54.559Z,20.00
2022-09-06T05:51:59.769Z,17.80
2022-09-06T05:55:03.367Z,19.00
2022-09-06T05:58:06.546Z,20.40
2022-09-06T06:01:17.534Z,20.40
2022-09-06T06:04:22.382Z,20.50
2022-09-06T06:07:26.902Z,20.70
2022-09-06T06:10:30.045Z,18.90
2022-09-06T06:13:39.459Z,20.60
2022-09-06T06:16:42.758Z,19.10
2022-09-06T06:19:45.988Z,21.00
2022-09-06T06:22:50.756Z,21.20
2022-09-06T06:25:55.988Z,21.50
2022-09-06T06:29:02.648Z,21.80
2022-09-06T06:32:06.658Z,22.10
2022-09-06T06:35:11.996Z,22.20
2022-09-06T06:38:19.875Z,22.50
2022-09-06T06:41:27.119Z,22.70
2022-09-06T06:44:32.535Z,22.80
2022-09-06T06:47:37.517Z,23.00
2022-09-06T06:50:41.061Z,23.20
2022-09-06T06:53:47.503Z,23.40
2022-09-06T06:56:51.200Z,22.70
2022-09-06T06:59:54.363Z,23.50
2022-09-06T07:02:57.528Z,23.50
2022-09-06T07:09:12.271Z,23.60
2022-09-06T07:12:15.444Z,23.70
2022-09-06T07:15:18.845Z,23.70
2022-09-06T07:18:23.893Z,23.80
2022-09-06T07:24:47.100Z,23.90
2022-09-06T07:28:01.608Z,23.80
2022-09-06T07:34:52.108Z,23.40
2022-09-06T07:37:57.812Z,23.10
2022-09-06T07:41:06.752Z,24.20
2022-09-06T07:44:29.938Z,21.30
2022-09-06T07:51:05.437Z,22.20
2022-09-06T07:57:36.342Z,21.80
2022-09-06T08:00:41.460Z,21.70
2022-09-06T08:03:47.402Z,21.60
2022-09-06T08:10:18.736Z,21.50
2022-09-06T08:13:27.759Z,21.50
2022-09-06T08:16:34.018Z,21.60
2022-09-06T08:19:51.109Z,22.90
2022-09-06T08:22:54.684Z,21.80
2022-09-06T08:25:59.039Z,22.00
2022-09-06T08:29:08.614Z,22.10
2022-09-06T08:32:12.224Z,22.20
2022-09-06T08:35:18.690Z,22.30
2022-09-06T08:38:23.791Z,22.30
2022-09-06T08:41:31.085Z,22.50
2022-09-06T08:44:58.887Z,22.50
2022-09-06T08:48:02.434Z,22.60
2022-09-06T08:51:38.369Z,22.60
2022-09-06T08:54:49.611Z,22.50
2022-09-06T08:58:48.439Z,22.50
2022-09-06T09:02:06.987Z,22.30
2022-09-06T09:05:23.102Z,22.50
2022-09-06T09:08:33.805Z,24.90
2022-09-06T09:11:38.141Z,22.50
2022-09-06T09:14:43.399Z,23.00
2022-09-06T09:17:50.941Z,22.40
2022-09-06T09:20:54.580Z,22.50
2022-09-06T09:24:00.327Z,22.50
2022-09-06T09:27:11.741Z,22.50
2022-09-06T09:33:41.607Z,22.50
2022-09-06T09:40:19.089Z,22.50
2022-09-06T09:43:26.480Z,22.40
2022-09-06T09:46:34.019Z,20.90
2022-09-06T09:49:39.765Z,22.40
2022-09-06T09:52:46.079Z,22.40
2022-09-06T09:56:02.599Z,22.40
2022-09-06T09:59:19.743Z,22.40
2022-09-06T10:02:29.960Z,22.50
2022-09-06T10:05:35.012Z,22.50
2022-09-06T10:08:44.659Z,24.10
2022-09-06T10:11:56.427Z,22.50
2022-09-06T10:15:04.951Z,20.30
2022-09-06T10:18:19.710Z,22.50
2022-09-06T10:21:27.560Z,22.40
2022-09-06T10:24:50.954Z,22.40
2022-09-06T10:28:29.678Z,22.40
2022-09-06T10:31:56.390Z,22.00
2022-09-06T10:35:13.929Z,22.50
2022-09-06T10:38:35.787Z,22.50
2022-09-06T10:42:03.175Z,22.50
2022-09-06T10:45:44.868Z,22.50
2022-09-06T10:48:51.194Z,22.50
2022-09-06T10:52:01.044Z,22.50
2022-09-06T10:55:18.559Z,22.50
2022-09-06T10:58:30.210Z,22.50
2022-09-06T11:01:40.999Z,22.40
2022-09-06T11:12:01.931Z,22.40
2022-09-06T11:15:10.234Z,22.40
2022-09-06T11:18:22.013Z,22.40
2022-09-06T11:22:05.879Z,22.40
2022-09-06T11:25:56.856Z,22.40
2022-09-06T11:29:07.005Z,22.40
2022-09-06T11:32:36.044Z,22.40
2022-09-06T11:35:42.593Z,22.40
2022-09-06T11:38:57.131Z,22.40
2022-09-06T11:42:01.431Z,22.30
2022-09-06T11:45:24.899Z,22.30
2022-09-06T11:49:03.995Z,22.30
2022-09-06T11:53:00.958Z,22.30
2022-09-06T11:56:32.273Z,22.40
2022-09-06T11:59:45.125Z,22.40
2022-09-06T12:02:51.043Z,22.40
2022-09-06T12:06:20.012Z,22.40
2022-09-06T12:09:38.935Z,22.40
2022-09-06T12:12:46.680Z,22.50
2022-09-06T12:15:56.595Z,22.40
2022-09-06T12:19:03.319Z,22.40
2022-09-06T12:23:04.384Z,22.50
2022-09-06T12:26:09.274Z,22.40
2022-09-06T12:29:12.929Z,22.40
2022-09-06T12:32:25.229Z,22.40
2022-09-06T12:39:03.332Z,22.50
2022-09-06T12:42:12.598Z,23.80
2022-09-06T12:45:27.107Z,22.40
2022-09-06T12:48:35.292Z,22.40
2022-09-06T12:51:41.527Z,22.40
2022-09-06T12:54:49.322Z,22.30
2022-09-06T12:57:55.847Z,22.20
2022-09-06T13:01:10.191Z,22.20
2022-09-06T13:04:24.111Z,22.20
2022-09-06T13:07:29.054Z,22.30
2022-09-06T13:10:34.510Z,22.30
2022-09-06T13:13:38.164Z,22.30
2022-09-06T13:16:48.263Z,22.30
2022-09-06T13:19:51.663Z,22.20
2022-09-06T13:23:07.985Z,22.20
2022-09-06T13:26:12.650Z,22.10
2022-09-06T13:29:30.328Z,22.10
2022-09-06T13:32:34.861Z,22.10
2022-09-06T13:35:39.536Z,22.00
2022-09-06T13:38:44.176Z,22.00
2022-09-06T13:41:57.629Z,22.00
2022-09-06T13:45:20.598Z,22.00
2022-09-06T13:48:29.071Z,21.30
2022-09-06T13:51:33.937Z,22.00
2022-09-06T13:54:37.649Z,21.90
2022-09-06T13:57:42.406Z,21.90
2022-09-06T14:00:46.882Z,24.50
2022-09-06T14:03:51.633Z,21.90
2022-09-06T14:06:55.845Z,22.00
2022-09-06T14:10:00.424Z,21.90
2022-09-06T14:13:05.930Z,21.90
2022-09-06T14:16:09.786Z,21.90
2022-09-06T14:19:13.453Z,21.90
2022-09-06T14:22:17.012Z,21.90
2022-09-06T14:25:20.360Z,21.90
2022-09-06T14:28:25.514Z,21.80
2022-09-06T14:31:32.513Z,21.80
2022-09-06T14:34:35.923Z,21.80
2022-09-06T14:37:39.798Z,22.40
2022-09-06T14:40:44.707Z,21.20
2022-09-06T14:43:54.301Z,21.90
2022-09-06T14:46:58.378Z,22.00
2022-09-06T14:50:02.198Z,22.00
2022-09-06T14:53:15.059Z,21.80
2022-09-06T14:56:28.184Z,22.00
2022-09-06T14:59:32.892Z,22.00
2022-09-06T15:02:37.958Z,21.90
2022-09-06T15:05:41.908Z,21.90
2022-09-06T15:08:45.810Z,21.80
2022-09-06T15:11:51.678Z,21.80
2022-09-06T15:14:56.266Z,21.70
2022-09-06T15:17:59.594Z,21.70
2022-09-06T15:21:10.582Z,20.20
2022-09-06T15:24:15.434Z,19.90
2022-09-06T15:27:19.160Z,21.70
2022-09-06T15:30:24.151Z,21.70
2022-09-06T15:33:30.675Z,21.60
2022-09-06T15:36:34.071Z,21.60
2022-09-06T15:39:37.631Z,21.00
2022-09-06T15:42:41.229Z,21.60
2022-09-06T15:45:50.805Z,22.20
2022-09-06T15:48:54.105Z,19.70
2022-09-06T15:51:59.467Z,21.60
2022-09-06T15:55:20.357Z,21.50
2022-09-06T15:58:24.497Z,21.50
2022-09-06T16:01:29.635Z,21.30
2022-09-06T16:04:33.121Z,21.20
2022-09-06T16:07:41.005Z,21.10
2022-09-06T16:10:44.390Z,21.10
2022-09-06T16:13:47.806Z,21.00
2022-09-06T16:16:54.764Z,20.90
2022-09-06T16:19:59.131Z,22.00
2022-09-06T16:23:02.370Z,20.80
2022-09-06T16:26:06.931Z,20.70
2022-09-06T16:29:12.988Z,20.70
2022-09-06T16:32:17.648Z,20.60
2022-09-06T16:35:20.969Z,20.60
2022-09-06T16:38:24.398Z,20.50
2022-09-06T16:41:34.769Z,18.90
2022-09-06T16:44:40.211Z,20.40
2022-09-06T16:47:46.446Z,20.00
2022-09-06T16:50:49.894Z,20.40
2022-09-06T16:53:54.291Z,20.40
2022-09-06T16:56:58.477Z,20.30
2022-09-06T17:00:01.775Z,20.30
2022-09-06T17:03:06.737Z,20.30
2022-09-06T17:06:10.080Z,20.20
2022-09-06T17:09:15.029Z,20.20
2022-09-06T17:12:18.277Z,20.20
2022-09-06T17:15:21.900Z,19.00
2022-09-06T17:18:26.127Z,20.10
2022-09-06T17:21:30.821Z,20.10
2022-09-06T17:24:34.243Z,20.10
2022-09-06T17:27:37.456Z,20.00
2022-09-06T17:30:41.002Z,20.00
2022-09-06T17:33:49.118Z,20.00
2022-09-06T17:36:52.818Z,19.90
2022-09-06T17:39:55.996Z,19.90
2022-09-06T17:42:59.328Z,19.90
2022-09-06T17:46:06.001Z,19.90
2022-09-06T17:49:31.939Z,19.90
2022-09-06T17:52:42.807Z,19.80
2022-09-06T17:55:48.215Z,19.80
2022-09-06T17:59:05.428Z,19.80
2022-09-06T18:02:13.697Z,19.70
2022-09-06T18:05:30.512Z,19.70
2022-09-06T18:08:40.804Z,19.60
2022-09-06T18:11:47.853Z,19.70
2022-09-06T18:14:53.852Z,19.50
2022-09-06T18:17:58.021Z,19.50
2022-09-06T18:21:28.086Z,19.50
2022-09-06T18:24:58.006Z,19.50
2022-09-06T18:28:01.709Z,19.50
2022-09-06T18:31:08.263Z,20.20
2022-09-06T18:34:22.517Z,19.50
2022-09-06T18:37:28.699Z,19.40
2022-09-06T18:40:32.323Z,20.00
2022-09-06T18:43:42.983Z,19.40
2022-09-06T18:46:50.992Z,21.40
2022-09-06T18:49:55.510Z,19.40
2022-09-06T18:53:06.610Z,19.80
2022-09-06T18:56:13.705Z,19.30
2022-09-06T18:59:21.985Z,19.30
2022-09-06T19:02:29.988Z,19.20
2022-09-06T19:05:41.050Z,19.30
2022-09-06T19:08:46.861Z,19.20
2022-09-06T19:11:53.039Z,19.20
2022-09-06T19:14:57.591Z,19.20
2022-09-06T19:18:00.785Z,19.10
2022-09-06T19:21:07.051Z,20.90
2022-09-06T19:24:14.558Z,19.10
2022-09-06T19:27:17.716Z,19.10
2022-09-06T19:30:20.956Z,19.10
2022-09-06T19:33:25.221Z,19.10
2022-09-06T19:36:30.271Z,19.00
2022-09-06T19:39:37.189Z,19.00
2022-09-06T19:42:40.662Z,19.00
2022-09-06T19:45:43.955Z,18.80
2022-09-06T19:48:50.061Z,20.10
2022-09-06T19:51:53.390Z,18.90
2022-09-06T19:54:58.045Z,18.80
2022-09-06T19:58:01.757Z,18.80
2022-09-06T20:01:05.424Z,18.80
2022-09-06T20:04:11.520Z,18.70
2022-09-06T20:07:14.792Z,18.70
2022-09-06T20:10:19.687Z,18.70
2022-09-06T20:13:23.326Z,18.00
2022-09-06T20:16:27.716Z,18.60
2022-09-06T20:19:30.965Z,18.60
2022-09-06T20:22:34.711Z,18.60
2022-09-06T20:25:40.567Z,18.50
2022-09-06T20:28:44.832Z,18.60
2022-09-06T20:31:48.205Z,18.50
2022-09-06T20:34:51.411Z,16.10
2022-09-06T20:37:54.863Z,18.30
2022-09-06T20:41:06.030Z,18.50
2022-09-06T20:44:09.404Z,18.50
2022-09-06T20:47:12.730Z,18.60
2022-09-06T20:50:16.570Z,18.40
2022-09-06T20:53:19.828Z,18.50
2022-09-06T20:56:28.634Z,18.50
2022-09-06T20:59:31.779Z,19.00
2022-09-06T21:02:35.101Z,18.60
2022-09-06T21:05:43.385Z,18.60
2022-09-06T21:08:46.979Z,18.50
2022-09-06T21:11:52.703Z,18.50
2022-09-06T21:14:55.941Z,18.50
2022-09-06T21:17:59.196Z,18.60
2022-09-06T21:21:05.566Z,16.90
2022-09-06T21:24:10.838Z,18.60
2022-09-06T21:27:16.649Z,18.60
2022-09-06T21:30:20.924Z,18.60
2022-09-06T21:33:24.451Z,18.60
2022-09-06T21:36:31.002Z,18.70
2022-09-06T21:39:34.511Z,18.60
2022-09-06T21:42:39.114Z,18.60
2022-09-06T21:45:42.325Z,18.70
2022-09-06T21:48:48.074Z,20.50
2022-09-06T21:51:51.432Z,16.30
2022-09-06T21:54:54.674Z,18.70
2022-09-06T21:57:59.344Z,18.50
2022-09-06T22:01:03.770Z,18.70
2022-09-06T22:04:09.267Z,18.60
2022-09-06T22:07:12.643Z,18.60
2022-09-06T22:10:16.044Z,18.50
2022-09-06T22:13:21.830Z,18.50
2022-09-06T22:16:26.926Z,18.50
2022-09-06T22:19:31.077Z,14.90
2022-09-06T22:22:34.648Z,18.50
2022-09-06T22:25:38.054Z,18.50
2022-09-06T22:28:42.757Z,18.40
2022-09-06T22:31:46.156Z,18.40
2022-09-06T22:34:49.474Z,20.20
2022-09-06T22:37:52.709Z,18.30
2022-09-06T22:40:57.172Z,18.30
2022-09-06T22:44:03.534Z,18.30
2022-09-06T22:47:07.215Z,18.30
2022-09-06T22:50:12.385Z,18.30
2022-09-06T22:53:15.792Z,18.30
2022-09-06T22:56:19.072Z,18.20
2022-09-06T22:59:24.184Z,18.20
2022-09-06T23:02:27.455Z,18.10
2022-09-06T23:05:32.977Z,18.10
2022-09-06T23:08:38.479Z,18.10
2022-09-06T23:11:41.862Z,18.40
2022-09-06T23:14:46.550Z,18.00
2022-09-06T23:17:49.970Z,18.00
2022-09-06T23:20:53.357Z,17.90
2022-09-06T23:23:58.109Z,17.90
2022-09-06T23:27:02.090Z,17.80
2022-09-06T23:30:08.754Z,19.80
2022-09-06T23:33:11.979Z,17.70
2022-09-06T23:36:15.696Z,17.70
2022-09-06T23:39:18.981Z,15.40
2022-09-06T23:42:23.141Z,17.60
2022-09-06T23:45:27.943Z,17.60
2022-09-06T23:48:31.131Z,17.60
2022-09-06T23:51:35.114Z,17.50
2022-09-06T23:54:38.558Z,17.50
2022-09-06T23:57:41.968Z,15.40
